createdAt,value
2022-09-07T00:01:15.814Z,99.90
2022-09-07T00:03:44.290Z,99.90
2022-09-07T00:06:14.580Z,99.90
2022-09-07T00:08:44.428Z,99.90
2022-09-07T00:11:16.345Z,99.70
2022-09-07T00:13:46.385Z,99.40
2022-09-07T00:16:17.212Z,99.90
2022-09-07T00:18:46.744Z,99.90
2022-09-07T00:21:17.121Z,99.90
2022-09-07T00:23:46.671Z,99.90
2022-09-07T00:26:18.856Z,99.90
2022-09-07T00:28:47.520Z,99.90
2022-09-07T00:31:17.737Z,99.90
2022-09-07T00:33:48.290Z,99.90
2022-09-07T00:36:17.258Z,99.90
2022-09-07T00:38:45.869Z,99.90
2022-09-07T00:41:16.665Z,99.90
2022-09-07T00:43:47.128Z,99.90
2022-09-07T00:46:18.178Z,99.90
2022-09-07T00:48:50.745Z,99.90
2022-09-07T00:51:24.682Z,99.90
2022-09-07T00:53:58.202Z,99.90
2022-09-07T00:56:31.824Z,99.90
2022-09-07T00:59:01.175Z,99.90
2022-09-07T01:01:29.925Z,99.90
2022-09-07T01:04:00.393Z,99.90
2022-09-07T01:06:32.216Z,99.90
2022-09-07T01:09:04.670Z,99.90
2022-09-07T01:11:35.499Z,99.90
2022-09-07T01:14:05.700Z,99.90
2022-09-07T01:16:48.513Z,99.90
2022-09-07T01:19:49.345Z,99.90
2022-09-07T01:22:40.584Z,99.90
2022-09-07T01:25:11.905Z,99.90
2022-09-07T01:28:04.575Z,99.90
2022-09-07T01:30:37.490Z,99.90
2022-09-07T01:33:24.370Z,99.90
2022-09-07T01:36:00.770Z,99.90
2022-09-07T01:38:36.930Z,99.90
2022-09-07T01:41:11.289Z,99.90
2022-09-07T01:43:49.785Z,99.90
2022-09-07T01:46:22.197Z,99.90
2022-09-07T01:48:53.562Z,99.90
2022-09-07T01:51:24.320Z,99.90
2022-09-07T01:53:56.703Z,99.90
2022-09-07T01:56:29.894Z,99.90
2022-09-07T01:59:05.164Z,99.90
2022-09-07T02:01:40.348Z,99.90
2022-09-07T02:04:11.972Z,99.90
2022-09-07T02:06:46.665Z,99.90
2022-09-07T02:09:20.170Z,99.90
2022-09-07T02:11:50.827Z,99.90
2022-09-07T02:14:26.694Z,99.90
2022-09-07T02:16:59.633Z,99.90
2022-09-07T02:19:34.541Z,99.90
2022-09-07T02:22:08.111Z,99.90
2022-09-07T02:24:40.892Z,99.90
2022-09-07T02:27:13.296Z,99.90
2022-09-07T02:29:44.650Z,99.90
2022-09-07T02:32:13.301Z,99.90
2022-09-07T02:34:41.699Z,99.90
2022-09-07T02:37:12.276Z,99.90
2022-09-07T02:39:40.809Z,99.90
2022-09-07T02:42:10.419Z,99.90
2022-09-07T02:44:45.601Z,99.90
2022-09-07T02:47:25.738Z,99.90
2022-09-07T02:50:13.490Z,99.90
2022-09-07T02:52:51.671Z,99.90
2022-09-07T02:55:33.867Z,99.90
2022-09-07T02:58:13.646Z,99.90
2022-09-07T03:00:51.938Z,99.90
2022-09-07T03:03:27.307Z,99.90
2022-09-07T03:06:00.561Z,99.90
2022-09-07T03:08:35.701Z,99.90
2022-09-07T03:11:06.651Z,99.90
2022-09-07T03:13:35.239Z,99.90
2022-09-07T03:16:05.363Z,99.90
2022-09-07T03:18:33.871Z,99.90
2022-09-07T03:21:02.304Z,99.90
2022-09-07T03:23:30.649Z,99.90
2022-09-07T03:25:59.037Z,99.90
2022-09-07T03:28:27.481Z,99.90
2022-09-07T03:30:55.975Z,99.90
2022-09-07T03:33:25.888Z,99.90
2022-09-07T03:36:02.428Z,99.90
2022-09-07T03:38:32.032Z,99.90
2022-09-07T03:41:01.973Z,99.90
2022-09-07T03:43:31.160Z,99.90
2022-09-07T03:46:00.948Z,99.90
2022-09-07T03:48:32.352Z,99.90
2022-09-07T03:51:01.666Z,99.90
2022-09-07T03:53:32.080Z,99.90
2022-09-07T03:56:01.843Z,99.90
2022-09-07T03:58:31.975Z,99.90
2022-09-07T04:01:01.511Z,99.90
2022-09-07T04:03:31.419Z,99.90
2022-09-07T04:06:00.229Z,99.90
2022-09-07T04:08:29.293Z,99.90
2022-09-07T04:10:58.379Z,99.90
2022-09-07T04:13:26.972Z,99.90
2022-09-07T04:15:55.747Z,99.90
2022-09-07T04:18:24.988Z,99.90
2022-09-07T04:20:54.783Z,99.90
2022-09-07T04:23:23.121Z,99.90
2022-09-07T04:25:52.691Z,99.90
2022-09-07T04:28:22.100Z,99.90
2022-09-07T04:30:50.526Z,99.90
2022-09-07T04:33:18.916Z,99.90
2022-09-07T04:35:47.241Z,99.90
2022-09-07T04:38:17.784Z,99.90
2022-09-07T04:40:46.105Z,99.90
2022-09-07T04:43:14.362Z,99.90
2022-09-07T04:45:42.858Z,99.90
2022-09-07T04:48:11.150Z,99.90
2022-09-07T04:50:39.529Z,99.90
2022-09-07T04:53:07.988Z,99.90
2022-09-07T04:55:37.726Z,99.90
2022-09-07T04:58:06.217Z,99.90
2022-09-07T05:00:34.560Z,99.90
2022-09-07T05:03:02.814Z,99.90
2022-09-07T05:05:31.116Z,99.90
2022-09-07T05:07:59.595Z,99.90
2022-09-07T05:10:27.975Z,99.90
2022-09-07T05:12:58.280Z,99.90
2022-09-07T05:15:26.620Z,99.90
2022-09-07T05:17:54.976Z,99.90
2022-09-07T05:20:23.503Z,99.90
2022-09-07T05:22:59.530Z,99.90
2022-09-07T05:25:29.237Z,99.90
2022-09-07T05:27:59.181Z,99.90
2022-09-07T05:33:16.070Z,99.90
2022-09-07T05:35:44.526Z,99.90
2022-09-07T05:38:12.849Z,99.90
2022-09-07T05:40:41.197Z,99.90
2022-09-07T05:43:11.140Z,99.90
2022-09-07T05:45:39.510Z,99.90
2022-09-07T05:48:07.812Z,99.90
2022-09-07T05:50:36.558Z,99.90
2022-09-07T05:53:05.232Z,99.90
2022-09-07T05:55:33.597Z,99.90
2022-09-07T05:58:01.872Z,99.90
2022-09-07T06:00:31.761Z,99.90
2022-09-07T06:03:00.224Z,99.90
2022-09-07T06:05:28.779Z,99.90
2022-09-07T06:07:57.235Z,99.90
2022-09-07T06:13:14.242Z,99.90
2022-09-07T06:15:44.205Z,99.90
2022-09-07T06:18:12.606Z,99.90
2022-09-07T06:20:41.010Z,99.90
2022-09-07T06:23:09.398Z,99.90
2022-09-07T06:25:37.796Z,99.90
2022-09-07T06:28:06.273Z,99.90
2022-09-07T06:30:34.583Z,99.90
2022-09-07T06:33:04.548Z,99.90
2022-09-07T06:35:32.882Z,99.90
2022-09-07T06:38:01.217Z,99.20
2022-09-07T06:40:29.490Z,97.90
2022-09-07T06:42:58.223Z,98.20
2022-09-07T06:45:26.777Z,97.60
2022-09-07T06:47:55.668Z,96.80
2022-09-07T06:50:27.824Z,97.30
2022-09-07T06:55:45.433Z,94.40
2022-09-07T06:58:13.936Z,92.60
2022-09-07T07:00:42.428Z,92.20
2022-09-07T07:03:10.941Z,92.60
2022-09-07T07:05:40.908Z,91.70
2022-09-07T07:08:13.497Z,90.00
2022-09-07T07:10:42.173Z,88.00
2022-09-07T07:13:10.691Z,86.70
2022-09-07T07:15:39.258Z,78.30
2022-09-07T07:18:20.260Z,78.10
2022-09-07T07:20:51.251Z,78.50
2022-09-07T07:23:19.875Z,73.50
2022-09-07T07:25:48.337Z,70.50
2022-09-07T07:31:09.911Z,63.40
2022-09-07T07:33:40.811Z,58.00
2022-09-07T07:36:15.772Z,55.40
2022-09-07T07:39:02.494Z,51.80
2022-09-07T07:44:22.107Z,49.70
2022-09-07T07:46:51.136Z,48.50
2022-09-07T07:49:20.426Z,47.00
2022-09-07T07:54:39.072Z,47.30
2022-09-07T07:57:07.875Z,47.10
2022-09-07T07:59:36.536Z,45.00
2022-09-07T08:02:05.904Z,45.40
2022-09-07T08:04:34.727Z,43.70
2022-09-07T08:07:10.145Z,44.10
2022-09-07T08:09:39.740Z,42.70
2022-09-07T08:12:08.601Z,42.00
2022-09-07T08:14:40.963Z,40.90
2022-09-07T08:17:10.055Z,41.90
2022-09-07T08:19:38.402Z,41.70
2022-09-07T08:22:08.757Z,42.80
2022-09-07T08:24:37.263Z,41.70
2022-09-07T08:27:06.038Z,40.50
2022-09-07T08:29:35.484Z,42.20
2022-09-07T08:32:06.700Z,41.60
2022-09-07T08:34:38.249Z,41.20
2022-09-07T08:37:07.991Z,41.30
2022-09-07T08:39:37.051Z,41.80
2022-09-07T08:42:19.003Z,42.10
2022-09-07T08:44:50.143Z,41.20
2022-09-07T08:47:26.245Z,40.60
2022-09-07T08:50:01.244Z,40.00
2022-09-07T08:52:41.603Z,38.90
2022-09-07T08:55:15.996Z,39.70
2022-09-07T08:57:50.141Z,39.70
2022-09-07T09:00:20.256Z,39.70
2022-09-07T09:03:28.661Z,38.70
2022-09-07T09:05:50.154Z,38.20
2022-09-07T09:08:32.340Z,37.80
2022-09-07T09:11:07.389Z,36.30
2022-09-07T09:13:53.334Z,36.60
2022-09-07T09:16:28.474Z,37.20
2022-09-07T09:19:07.320Z,37.10
2022-09-07T09:21:36.267Z,35.40
2022-09-07T09:24:16.494Z,35.50
2022-09-07T09:26:47.691Z,34.60
2022-09-07T09:29:17.411Z,34.50
2022-09-07T09:31:45.786Z,34.50
2022-09-07T09:34:15.282Z,33.80
2022-09-07T09:36:48.071Z,32.80
2022-09-07T09:39:33.057Z,32.70
2022-09-07T09:42:15.454Z,33.30
2022-09-07T09:44:45.535Z,33.30
2022-09-07T09:47:30.727Z,32.60
2022-09-07T09:50:01.000Z,33.00
2022-09-07T09:52:41.921Z,31.50
2022-09-07T09:55:35.796Z,31.10
2022-09-07T10:06:22.679Z,30.50
2022-09-07T10:08:57.750Z,30.30
2022-09-07T10:14:25.321Z,30.80
2022-09-07T10:16:53.931Z,29.80
2022-09-07T10:19:30.962Z,30.10
2022-09-07T10:22:00.895Z,30.20
2022-09-07T10:24:32.843Z,30.40
2022-09-07T10:27:00.942Z,30.00
2022-09-07T10:29:36.127Z,29.40
2022-09-07T10:32:21.912Z,29.90
2022-09-07T10:35:05.262Z,29.30
2022-09-07T10:37:44.841Z,28.10
2022-09-07T10:40:23.116Z,28.10
2022-09-07T10:46:56.229Z,28.40
2022-09-07T10:49:24.779Z,26.70
2022-09-07T10:52:03.546Z,26.80
2022-09-07T10:54:41.110Z,26.20
2022-09-07T10:57:30.808Z,27.00
2022-09-07T11:00:09.743Z,26.90
2022-09-07T11:05:57.208Z,28.10
2022-09-07T11:09:15.726Z,27.50
2022-09-07T11:14:20.115Z,27.30
2022-09-07T11:16:54.569Z,26.50
2022-09-07T11:19:37.896Z,26.90
2022-09-07T11:22:20.977Z,26.30
2022-09-07T11:27:48.099Z,25.90
2022-09-07T11:30:23.697Z,26.30
2022-09-07T11:33:04.645Z,25.90
2022-09-07T11:35:44.515Z,27.70
2022-09-07T11:38:20.539Z,27.50
2022-09-07T11:41:07.353Z,27.50
2022-09-07T11:43:38.872Z,26.50
2022-09-07T11:46:12.061Z,26.20
2022-09-07T11:48:44.928Z,25.30
2022-09-07T11:51:20.804Z,24.70
2022-09-07T11:53:52.761Z,25.20
2022-09-07T11:56:27.068Z,25.40
2022-09-07T11:59:32.512Z,25.30
2022-09-07T12:02:55.288Z,25.60
2022-09-07T12:05:31.539Z,24.80
2022-09-07T12:08:12.348Z,25.90
2022-09-07T12:11:09.274Z,26.10
2022-09-07T12:14:06.435Z,26.60
2022-09-07T12:16:54.224Z,26.20
2022-09-07T12:19:24.655Z,27.50
2022-09-07T12:21:57.706Z,26.70
2022-09-07T12:24:44.541Z,26.20
2022-09-07T12:27:40.149Z,26.50
2022-09-07T12:30:51.955Z,25.70
2022-09-07T12:33:25.268Z,25.60
2022-09-07T12:35:55.087Z,25.70
2022-09-07T12:39:00.458Z,25.70
2022-09-07T12:41:47.852Z,26.10
2022-09-07T12:44:23.195Z,25.30
2022-09-07T12:47:00.202Z,25.80
2022-09-07T12:50:00.361Z,26.30
2022-09-07T12:52:48.524Z,26.60
2022-09-07T12:59:00.858Z,26.50
2022-09-07T13:01:37.736Z,26.10
2022-09-07T13:04:29.840Z,25.70
2022-09-07T13:07:16.890Z,26.30
2022-09-07T13:09:57.467Z,26.50
2022-09-07T13:15:53.125Z,26.90
2022-09-07T13:18:43.060Z,26.80
2022-09-07T13:21:37.230Z,26.50
2022-09-07T13:24:47.191Z,26.00
2022-09-07T13:27:39.629Z,26.00
2022-09-07T13:30:24.822Z,27.10
2022-09-07T13:33:32.766Z,26.50
2022-09-07T13:36:03.241Z,25.30
2022-09-07T13:38:33.525Z,25.30
2022-09-07T13:41:07.401Z,25.00
2022-09-07T13:43:37.083Z,26.10
2022-09-07T13:46:16.108Z,26.40
2022-09-07T13:48:51.664Z,25.50
2022-09-07T13:51:25.160Z,24.70
2022-09-07T13:54:04.509Z,24.80
2022-09-07T13:56:41.378Z,25.10
2022-09-07T13:59:20.604Z,26.50
2022-09-07T14:01:50.410Z,26.60
2022-09-07T14:04:26.944Z,26.90
2022-09-07T14:07:03.539Z,27.00
2022-09-07T14:09:31.934Z,27.80
2022-09-07T14:12:00.663Z,28.10
2022-09-07T14:14:30.971Z,27.70
2022-09-07T14:17:13.679Z,28.00
2022-09-07T14:19:45.253Z,28.00
2022-09-07T14:22:16.893Z,28.50
2022-09-07T14:24:49.640Z,27.40
2022-09-07T14:27:23.097Z,27.00
2022-09-07T14:29:51.871Z,27.10
2022-09-07T14:32:23.383Z,27.90
2022-09-07T14:34:53.320Z,27.80
2022-09-07T14:37:23.255Z,28.30
2022-09-07T14:39:59.495Z,28.60
2022-09-07T14:42:28.722Z,29.40
2022-09-07T14:45:21.800Z,28.90
2022-09-07T14:47:52.815Z,28.90
2022-09-07T14:50:24.959Z,30.00
2022-09-07T14:55:47.103Z,29.80
2022-09-07T14:58:25.469Z,29.20
2022-09-07T15:03:59.073Z,30.30
2022-09-07T15:09:30.759Z,29.50
2022-09-07T15:12:17.948Z,30.00
2022-09-07T15:14:47.589Z,31.00
2022-09-07T15:20:32.339Z,30.20
2022-09-07T15:23:02.185Z,30.50
2022-09-07T15:25:30.587Z,31.10
2022-09-07T15:27:58.913Z,31.10
2022-09-07T15:30:27.552Z,31.30
2022-09-07T15:32:57.301Z,31.30
2022-09-07T15:35:25.912Z,32.60
2022-09-07T15:38:02.795Z,32.20
2022-09-07T15:40:56.186Z,31.50
2022-09-07T15:43:29.372Z,32.10
2022-09-07T15:45:57.638Z,32.10
2022-09-07T15:48:26.534Z,32.70
2022-09-07T15:51:02.621Z,33.60
2022-09-07T15:56:20.527Z,34.40
2022-09-07T15:58:52.874Z,34.80
2022-09-07T16:04:14.734Z,35.60
2022-09-07T16:06:43.399Z,35.80
2022-09-07T16:09:11.491Z,37.10
2022-09-07T16:11:40.967Z,36.60
2022-09-07T16:14:11.735Z,36.80
2022-09-07T16:19:28.435Z,37.10
2022-09-07T16:21:57.473Z,38.00
2022-09-07T16:24:27.845Z,38.10
2022-09-07T16:26:57.377Z,38.60
2022-09-07T16:29:25.680Z,38.80
2022-09-07T16:34:41.912Z,39.20
2022-09-07T16:37:10.077Z,39.30
2022-09-07T16:39:38.286Z,39.80
2022-09-07T16:42:08.971Z,39.60
2022-09-07T16:44:37.107Z,40.20
2022-09-07T16:47:05.344Z,40.70
2022-09-07T16:49:33.654Z,40.90
2022-09-07T16:52:01.801Z,41.40
2022-09-07T16:54:29.865Z,41.20
2022-09-07T16:56:58.051Z,41.70
2022-09-07T16:59:27.591Z,40.90
2022-09-07T17:01:56.545Z,40.90
2022-09-07T17:04:24.996Z,41.30
2022-09-07T17:06:54.440Z,41.10
2022-09-07T17:09:26.568Z,41.60
2022-09-07T17:11:55.193Z,41.90
2022-09-07T17:14:23.632Z,41.50
2022-09-07T17:16:53.290Z,42.30
2022-09-07T17:19:30.066Z,43.10
2022-09-07T17:21:59.747Z,43.70
2022-09-07T17:24:27.972Z,44.20
2022-09-07T17:26:56.704Z,44.30
2022-09-07T17:29:25.103Z,44.60
2022-09-07T17:34:42.683Z,44.60
2022-09-07T17:37:38.926Z,45.00
2022-09-07T17:40:13.128Z,45.60
2022-09-07T17:45:29.859Z,46.80
2022-09-07T17:47:59.605Z,47.50
2022-09-07T17:50:27.802Z,48.30
2022-09-07T17:52:56.031Z,49.20
2022-09-07T17:55:25.525Z,49.30
2022-09-07T17:57:53.753Z,49.50
2022-09-07T18:00:22.051Z,49.60
2022-09-07T18:02:51.147Z,50.30
2022-09-07T18:05:20.706Z,51.30
2022-09-07T18:07:48.955Z,52.40
2022-09-07T18:10:17.574Z,54.60
2022-09-07T18:12:45.777Z,55.30
2022-09-07T18:15:13.975Z,56.10
2022-09-07T18:17:42.211Z,57.00
2022-09-07T18:20:10.829Z,57.30
2022-09-07T18:22:40.276Z,58.20
2022-09-07T18:25:10.377Z,58.90
2022-09-07T18:27:40.440Z,59.80
2022-09-07T18:30:10.757Z,60.20
2022-09-07T18:32:39.079Z,60.70
2022-09-07T18:35:08.172Z,61.70
2022-09-07T18:37:36.340Z,62.70
2022-09-07T18:40:08.332Z,63.60
2022-09-07T18:42:36.429Z,63.50
2022-09-07T18:47:54.691Z,63.90
2022-09-07T18:50:23.313Z,64.70
2022-09-07T18:52:52.376Z,66.20
2022-09-07T18:55:24.031Z,66.70
2022-09-07T18:57:52.198Z,66.90
2022-09-07T19:00:20.572Z,67.40
2022-09-07T19:02:53.667Z,67.80
2022-09-07T19:08:10.279Z,68.20
2022-09-07T19:10:39.821Z,68.50
2022-09-07T19:13:08.018Z,68.90
2022-09-07T19:15:37.670Z,67.80
2022-09-07T19:18:07.743Z,67.60
2022-09-07T19:20:36.114Z,67.60
2022-09-07T19:23:05.011Z,68.20
2022-09-07T19:25:33.208Z,68.40
2022-09-07T19:28:02.863Z,68.20
2022-09-07T19:30:35.570Z,67.90
2022-09-07T19:33:04.853Z,68.20
2022-09-07T19:35:36.730Z,68.20
2022-09-07T19:38:05.139Z,68.00
2022-09-07T19:40:33.240Z,68.10
2022-09-07T19:43:02.723Z,68.30
2022-09-07T19:45:32.592Z,69.10
2022-09-07T19:48:00.746Z,70.00
2022-09-07T19:50:28.890Z,69.90
2022-09-07T19:52:57.123Z,69.40
2022-09-07T19:55:25.210Z,71.10
2022-09-07T19:57:53.383Z,71.80
2022-09-07T20:00:24.760Z,72.60
2022-09-07T20:02:54.136Z,74.20
2022-09-07T20:05:23.757Z,74.90
2022-09-07T20:07:51.923Z,74.90
2022-09-07T20:10:20.524Z,74.50
2022-09-07T20:12:48.718Z,74.50
2022-09-07T20:15:16.988Z,74.40
2022-09-07T20:17:47.499Z,74.90
2022-09-07T20:20:15.944Z,75.80
2022-09-07T20:22:44.173Z,76.00
2022-09-07T20:25:13.392Z,75.70
2022-09-07T20:27:41.769Z,75.90
2022-09-07T20:30:11.172Z,76.10
2022-09-07T20:32:41.511Z,76.20
2022-09-07T20:35:11.448Z,76.00
2022-09-07T20:37:39.651Z,76.20
2022-09-07T20:40:09.041Z,74.90
2022-09-07T20:42:37.549Z,75.30
2022-09-07T20:45:06.647Z,75.80
2022-09-07T20:47:34.934Z,76.10
2022-09-07T20:50:03.040Z,76.00
2022-09-07T20:52:32.579Z,76.20
2022-09-07T20:55:00.697Z,76.30
2022-09-07T20:57:28.780Z,76.80
2022-09-07T20:59:56.896Z,76.80
2022-09-07T21:02:25.271Z,76.50
2022-09-07T21:04:53.539Z,76.10
2022-09-07T21:07:21.676Z,76.30
2022-09-07T21:09:51.410Z,76.40
2022-09-07T21:12:19.782Z,76.20
2022-09-07T21:14:48.415Z,76.50
2022-09-07T21:17:16.655Z,76.90
2022-09-07T21:19:44.791Z,77.60
2022-09-07T21:22:12.925Z,77.90
2022-09-07T21:24:41.157Z,79.10
2022-09-07T21:27:10.748Z,80.00
2022-09-07T21:29:38.943Z,80.80
2022-09-07T21:32:07.110Z,81.70
2022-09-07T21:34:35.316Z,85.80
2022-09-07T21:37:03.399Z,87.60
2022-09-07T21:39:31.670Z,87.70
2022-09-07T21:41:59.812Z,87.50
2022-09-07T21:44:29.285Z,86.50
2022-09-07T21:46:57.485Z,85.70
2022-09-07T21:49:25.722Z,85.70
2022-09-07T21:51:53.907Z,89.20
2022-09-07T21:54:22.041Z,90.20
2022-09-07T21:56:50.387Z,90.30
2022-09-07T21:59:18.466Z,90.40
2022-09-07T22:01:48.704Z,90.30
2022-09-07T22:04:16.879Z,90.90
2022-09-07T22:06:45.007Z,91.00
2022-09-07T22:09:13.147Z,91.70
2022-09-07T22:11:45.738Z,92.30
2022-09-07T22:14:15.707Z,92.50
2022-09-07T22:16:43.866Z,92.20
2022-09-07T22:19:13.330Z,92.20
2022-09-07T22:21:41.528Z,92.20
2022-09-07T22:24:11.972Z,91.70
2022-09-07T22:26:40.155Z,92.10
2022-09-07T22:29:09.769Z,92.80
2022-09-07T22:31:38.965Z,92.80
2022-09-07T22:34:09.294Z,92.90
2022-09-07T22:36:40.954Z,93.00
2022-09-07T22:39:13.024Z,93.10
2022-09-07T22:41:42.712Z,93.10
2022-09-07T22:44:13.340Z,93.30
2022-09-07T22:46:43.574Z,93.20
2022-09-07T22:49:12.785Z,93.10
2022-09-07T22:51:42.330Z,93.50
2022-09-07T22:54:10.763Z,93.70
2022-09-07T22:56:39.404Z,93.60
2022-09-07T22:59:09.414Z,93.60
2022-09-07T23:01:38.466Z,94.00
2022-09-07T23:04:07.324Z,94.60
2022-09-07T23:06:37.118Z,94.80
2022-09-07T23:09:08.442Z,95.10
2022-09-07T23:11:36.945Z,95.50
2022-09-07T23:14:07.806Z,95.30
2022-09-07T23:16:36.214Z,95.30
2022-09-07T23:19:04.772Z,95.20
2022-09-07T23:21:32.904Z,95.70
2022-09-07T23:24:02.047Z,96.20
2022-09-07T23:26:32.989Z,96.30
2022-09-07T23:29:02.636Z,96.90
2022-09-07T23:31:32.785Z,97.70
2022-09-07T23:34:01.645Z,98.10
2022-09-07T23:36:30.269Z,98.20
2022-09-07T23:38:59.506Z,98.40
2022-09-07T23:41:28.741Z,98.30
2022-09-07T23:43:58.258Z,98.40
2022-09-07T23:46:26.510Z,98.10
2022-09-07T23:48:54.691Z,97.90
2022-09-07T23:51:24.435Z,98.50
2022-09-07T23:53:53.391Z,98.70
2022-09-07T23:56:22.137Z,98.70
2022-09-07T23:58:50.306Z,98.80
